Time;durP1;ratioP1;P1;durP2;ratioP2;P2;SDS_P1;SDS_P2;PMS_P1;PMS_P2;Temp;Humidity;BMP_temperature;BMP_pressure;BME280_temperature;BME280_humidity;BME280_pressure;Samples;Min_cycle;Max_cycle;Signal;HPM_P1;HPM_P2
2022/12/18 00:02:08;;;;;;;0.43;0.43;;;;;;;10.17;100.00;99987.63;5073335;28;20230;-65
2022/12/18 00:04:35;;;;;;;0.40;0.40;;;;;;;10.27;100.00;99995.13;5070407;28;20204;-65
2022/12/18 00:07:02;;;;;;;0.80;0.80;;;;;;;10.31;100.00;100001.84;5073167;28;20246;-65
2022/12/18 00:09:29;;;;;;;0.50;0.50;;;;;;;10.31;100.00;100006.97;5072728;28;20686;-65
2022/12/18 00:11:56;;;;;;;1.03;1.03;;;;;;;10.30;100.00;100012.16;5071153;28;20197;-65
2022/12/18 00:14:23;;;;;;;0.60;0.60;;;;;;;10.29;100.00;100031.78;5072689;28;20200;-65
2022/12/18 00:16:50;;;;;;;0.50;0.50;;;;;;;10.28;100.00;100030.09;5073255;28;20196;-65
2022/12/18 00:19:18;;;;;;;0.40;0.40;;;;;;;10.28;100.00;100035.22;5073175;28;20223;-65
2022/12/18 00:21:45;;;;;;;0.40;0.40;;;;;;;10.26;100.00;100039.53;5071868;28;20204;-65
2022/12/18 00:24:12;;;;;;;0.40;0.40;;;;;;;10.21;100.00;100031.09;5072679;28;20707;-65
2022/12/18 00:26:39;;;;;;;1.17;1.17;;;;;;;10.23;100.00;100042.16;5071558;28;20200;-65
2022/12/18 00:29:08;;;;;;;0.53;0.53;;;;;;;10.19;100.00;100048.22;5072913;28;20203;-65
2022/12/18 00:31:36;;;;;;;1.13;1.13;;;;;;;10.17;100.00;100047.41;5072729;28;20249;-66
2022/12/18 00:34:03;;;;;;;0.40;0.40;;;;;;;10.14;100.00;100052.59;5072809;28;20596;-65
2022/12/18 00:36:34;;;;;;;0.50;0.50;;;;;;;10.15;100.00;100054.25;5072625;28;20246;-65
2022/12/18 00:39:02;;;;;;;0.40;0.40;;;;;;;10.12;100.00;100058.56;5072321;28;20243;-66
2022/12/18 00:44:16;;;;;;;0.50;0.50;;;;;;;10.13;100.00;100066.22;5072686;28;20304;-65
2022/12/18 00:46:44;;;;;;;0.53;0.53;;;;;;;10.14;100.00;100062.84;5072376;28;20672;-65
2022/12/18 00:49:14;;;;;;;0.60;0.60;;;;;;;10.13;100.00;100071.34;5072455;28;20204;-65
2022/12/18 00:51:42;;;;;;;0.53;0.53;;;;;;;10.17;100.00;100079.88;5071958;28;20191;-65
2022/12/18 00:54:09;;;;;;;0.40;0.40;;;;;;;10.18;100.00;100069.56;5071540;28;20199;-65
2022/12/18 00:56:38;;;;;;;0.40;0.40;;;;;;;10.17;100.00;100073.03;5072010;28;20254;-65
2022/12/18 00:59:05;;;;;;;0.60;0.60;;;;;;;10.16;100.00;100068.75;5072263;28;20216;-65
2022/12/18 01:01:33;;;;;;;0.40;0.40;;;;;;;10.20;100.00;100078.09;5072061;28;20211;-65
2022/12/18 01:04:04;;;;;;;0.87;0.87;;;;;;;10.18;100.00;100084.94;5072154;28;20629;-65
2022/12/18 01:06:30;;;;;;;0.60;0.60;;;;;;;10.16;100.00;100071.34;5070872;28;20202;-66
2022/12/18 01:08:59;;;;;;;0.40;0.40;;;;;;;10.15;100.00;100058.53;5071590;28;20370;-65
2022/12/18 01:11:26;;;;;;;1.03;1.03;;;;;;;10.15;100.00;100061.09;5071895;28;20232;-65
2022/12/18 01:13:53;;;;;;;0.40;0.40;;;;;;;10.20;100.00;100070.41;5071624;28;20206;-65
2022/12/18 01:16:20;;;;;;;0.70;0.70;;;;;;;10.20;100.00;100077.25;5070328;28;20192;-65
2022/12/18 01:18:47;;;;;;;0.60;0.60;;;;;;;10.13;100.00;100065.38;5071620;28;20218;-65
2022/12/18 01:21:16;;;;;;;0.70;0.70;;;;;;;10.14;100.00;100083.34;5071728;28;20206;-65
2022/12/18 01:23:46;;;;;;;1.60;1.60;;;;;;;10.09;100.00;100074.84;5071952;28;20196;-65
2022/12/18 01:26:16;;;;;;;0.50;0.50;;;;;;;10.08;100.00;100087.69;5071424;28;20196;-65
2022/12/18 01:28:44;;;;;;;1.00;1.00;;;;;;;9.99;100.00;100068.16;5071695;28;20584;-65
2022/12/18 01:31:17;;;;;;;1.03;1.03;;;;;;;10.02;100.00;100088.59;5071575;28;20196;-65
2022/12/18 01:33:44;;;;;;;0.90;0.90;;;;;;;9.98;100.00;100076.75;5069832;28;20676;-65
2022/12/18 01:36:17;;;;;;;0.40;0.40;;;;;;;9.97;100.00;100081.03;5070120;28;20202;-65
2022/12/18 01:38:44;;;;;;;0.63;0.63;;;;;;;9.98;100.00;100089.56;5071214;28;20211;-65
2022/12/18 01:41:11;;;;;;;0.40;0.40;;;;;;;9.95;100.00;100087.06;5068429;28;20265;-65
2022/12/18 01:43:51;;;;;;;0.80;0.80;;;;;;;9.96;100.00;100084.44;5070690;28;20207;-65
2022/12/18 01:46:19;;;;;;;1.03;1.03;;;;;;;9.93;100.00;100083.66;5070458;28;20204;-65
2022/12/18 01:48:48;;;;;;;0.47;0.47;;;;;;;9.92;100.00;100076.81;5069896;28;20200;-65
2022/12/18 01:51:16;;;;;;;0.80;0.80;;;;;;;9.91;100.00;100090.53;5071352;28;20196;-65
2022/12/18 01:53:44;;;;;;;0.93;0.93;;;;;;;9.87;100.00;100088.88;5070683;28;20200;-65
2022/12/18 01:56:15;;;;;;;0.60;0.60;;;;;;;9.87;100.00;100099.97;5070313;28;20196;-65
2022/12/18 01:58:53;;;;;;;1.13;1.13;;;;;;;9.93;100.00;100106.69;5071070;28;20281;-65
2022/12/18 02:01:22;;;;;;;0.50;0.50;;;;;;;9.95;100.00;100113.47;5071011;28;20202;-65
2022/12/18 02:03:49;;;;;;;0.70;0.70;;;;;;;9.90;100.00;100107.59;5070547;28;20235;-65
2022/12/18 02:06:20;;;;;;;0.60;0.60;;;;;;;9.98;100.00;100112.59;5070944;28;20206;-65
2022/12/18 02:09:03;;;;;;;0.50;0.50;;;;;;;9.98;100.00;100107.50;5069820;28;20286;-65
2022/12/18 02:11:40;;;;;;;0.63;0.63;;;;;;;9.98;100.00;100107.50;5068900;28;20771;-65
2022/12/18 02:14:19;;;;;;;0.60;0.60;;;;;;;9.80;100.00;100077.03;5068301;28;20235;-66
2022/12/18 02:16:53;;;;;;;0.80;0.80;;;;;;;9.84;100.00;100091.50;5070471;28;20690;-65
2022/12/18 02:19:38;;;;;;;0.60;0.60;;;;;;;9.91;100.00;100106.75;5070676;28;20219;-65
2022/12/18 02:22:22;;;;;;;0.43;0.43;;;;;;;9.85;100.00;100111.13;5071146;28;20283;-65
2022/12/18 02:24:58;;;;;;;0.50;0.50;;;;;;;9.77;100.00;100102.69;5070726;28;20924;-65
2022/12/18 02:27:28;;;;;;;0.97;0.97;;;;;;;9.86;100.00;100117.91;5070940;28;20199;-65
2022/12/18 02:29:58;;;;;;;0.80;0.80;;;;;;;9.77;100.00;100100.13;5069586;28;20666;-65
2022/12/18 02:32:29;;;;;;;0.40;0.40;;;;;;;9.82;100.00;100106.03;5070803;28;20196;-65
2022/12/18 02:34:58;;;;;;;0.50;0.50;;;;;;;9.91;100.00;100116.13;5070734;28;20213;-65
2022/12/18 02:37:28;;;;;;;0.40;0.40;;;;;;;9.92;100.00;100110.13;5070675;28;20196;-65
2022/12/18 02:39:58;;;;;;;0.50;0.50;;;;;;;9.93;100.00;100109.25;5070376;28;20212;-65
2022/12/18 02:42:27;;;;;;;0.40;0.40;;;;;;;9.83;100.00;100107.72;5070588;28;20204;-65
2022/12/18 02:44:57;;;;;;;0.60;0.60;;;;;;;9.88;100.00;100111.06;5072778;28;20683;-65
2022/12/18 02:47:29;;;;;;;0.50;0.50;;;;;;;9.91;100.00;100111.00;5075011;28;20199;-65
2022/12/18 02:50:03;;;;;;;2.07;1.20;;;;;;;9.94;100.00;100111.81;5074689;28;20275;-65
2022/12/18 02:52:36;;;;;;;2.07;0.70;;;;;;;9.92;100.00;100112.69;5074480;28;20196;-66
2022/12/18 02:55:15;;;;;;;0.60;0.60;;;;;;;9.94;100.00;100113.53;5073731;28;20309;-65
2022/12/18 02:57:47;;;;;;;0.60;0.60;;;;;;;9.94;100.00;100121.22;5074578;28;20672;-65
2022/12/18 03:00:18;;;;;;;0.40;0.40;;;;;;;9.97;100.00;100118.59;5073904;28;20298;-65
2022/12/18 03:02:50;;;;;;;0.83;0.83;;;;;;;9.98;100.00;100117.72;5074172;28;20231;-65
2022/12/18 03:05:21;;;;;;;0.57;0.57;;;;;;;9.99;100.00;100114.28;5073622;28;20200;-65
2022/12/18 03:07:53;;;;;;;0.50;0.50;;;;;;;10.01;100.00;100120.25;5074249;28;20196;-65
2022/12/18 03:10:27;;;;;;;0.50;0.50;;;;;;;10.00;100.00;100121.09;5073614;28;20203;-65
2022/12/18 03:13:02;;;;;;;0.50;0.50;;;;;;;10.02;100.00;100125.31;5074016;28;20192;-65
2022/12/18 03:15:32;;;;;;;0.80;0.80;;;;;;;10.00;100.00;100121.09;5067389;28;20191;-66
2022/12/18 03:18:06;;;;;;;0.50;0.50;;;;;;;10.00;100.00;100127.06;5074068;28;20206;-65
2022/12/18 03:20:35;;;;;;;0.50;0.50;;;;;;;10.01;100.00;100130.50;5074439;28;20330;-66
2022/12/18 03:23:10;;;;;;;0.50;0.50;;;;;;;10.00;100.00;100121.09;5073752;28;20192;-65
2022/12/18 03:25:44;;;;;;;0.50;0.50;;;;;;;9.86;100.00;100108.50;5071465;28;20199;-65
2022/12/18 03:28:16;;;;;;;0.80;0.80;;;;;;;9.99;100.00;100120.25;5073829;28;20196;-65
2022/12/18 03:30:46;;;;;;;0.40;0.40;;;;;;;9.96;100.00;100128.00;5074237;28;20196;-65
2022/12/18 03:33:19;;;;;;;0.50;0.50;;;;;;;9.93;100.00;100122.91;5073424;28;20208;-65
2022/12/18 03:35:47;;;;;;;0.57;0.57;;;;;;;9.92;100.00;100134.03;5073805;28;20220;-65
2022/12/18 03:38:14;;;;;;;0.40;0.40;;;;;;;9.91;100.00;100146.88;5073734;28;20219;-65
2022/12/18 03:40:51;;;;;;;0.70;0.70;;;;;;;9.89;100.00;100148.59;5073825;28;20277;-65
2022/12/18 03:43:27;;;;;;;0.77;0.77;;;;;;;9.88;100.00;100155.44;5071740;28;20576;-65
2022/12/18 03:46:01;;;;;;;0.50;0.50;;;;;;;9.87;100.00;100160.59;5069046;28;20211;-65
2022/12/18 03:48:35;;;;;;;0.40;0.40;;;;;;;9.79;100.00;100163.25;5073693;28;20192;-65
2022/12/18 03:51:06;;;;;;;0.40;0.40;;;;;;;9.77;100.00;100161.59;5073612;28;20196;-65
2022/12/18 03:53:40;;;;;;;0.60;0.60;;;;;;;9.74;100.00;100174.44;5069738;28;20208;-65
2022/12/18 03:56:09;;;;;;;0.50;0.50;;;;;;;9.67;100.00;100173.66;5069946;28;20258;-65
2022/12/18 03:58:41;;;;;;;0.47;0.47;;;;;;;9.65;100.00;100172.88;5072703;28;20265;-65
2022/12/18 04:01:14;;;;;;;0.47;0.47;;;;;;;9.59;100.00;100169.53;5073352;28;20207;-65
2022/12/18 04:03:43;;;;;;;0.40;0.40;;;;;;;9.48;100.00;100157.72;5072673;28;20231;-65
2022/12/18 04:06:12;;;;;;;0.60;0.60;;;;;;;9.60;100.00;100172.06;5069355;28;20204;-65
2022/12/18 04:08:40;;;;;;;0.40;0.40;;;;;;;9.62;100.00;100174.63;5073244;28;20200;-65
2022/12/18 04:11:07;;;;;;;0.50;0.50;;;;;;;9.65;100.00;100189.94;5073649;28;20662;-65
2022/12/18 04:13:37;;;;;;;0.60;0.60;;;;;;;9.62;100.00;100184.84;5072933;28;20219;-65
2022/12/18 04:16:04;;;;;;;0.40;0.40;;;;;;;9.64;100.00;100198.47;5067711;28;20196;-65
2022/12/18 04:18:32;;;;;;;0.40;0.40;;;;;;;9.67;100.00;100194.16;5072977;28;20200;-65
2022/12/18 04:20:58;;;;;;;0.90;0.90;;;;;;;9.66;100.00;100201.88;5073351;28;20278;-65
2022/12/18 04:23:25;;;;;;;0.60;0.60;;;;;;;9.68;100.00;100202.69;5073277;28;20695;-65
2022/12/18 04:25:52;;;;;;;3.80;1.00;;;;;;;9.69;100.00;100206.94;5067863;28;20671;-65
2022/12/18 04:28:19;;;;;;;0.50;0.50;;;;;;;9.67;100.00;100204.41;5072950;28;20208;-65
2022/12/18 04:30:49;;;;;;;0.30;0.30;;;;;;;9.70;100.00;100203.50;5071710;28;20564;-65
2022/12/18 04:33:19;;;;;;;0.40;0.40;;;;;;;9.68;100.00;100205.25;5070014;28;20212;-64
2022/12/18 04:35:46;;;;;;;0.40;0.40;;;;;;;9.67;100.00;100203.53;5072161;28;20208;-65
2022/12/18 04:38:13;;;;;;;0.60;0.60;;;;;;;9.63;100.00;100202.72;5072362;28;20552;-65
2022/12/18 04:40:40;;;;;;;0.53;0.53;;;;;;;9.57;100.00;100192.59;5072598;28;20211;-65
2022/12/18 04:43:07;;;;;;;0.60;0.60;;;;;;;9.59;100.00;100200.25;5072987;28;20195;-65
2022/12/18 04:45:34;;;;;;;0.70;0.70;;;;;;;9.55;100.00;100203.72;5072854;28;20215;-65
2022/12/18 04:48:03;;;;;;;0.40;0.40;;;;;;;9.44;100.00;100201.28;5072457;28;20652;-65
2022/12/18 04:50:31;;;;;;;0.47;0.47;;;;;;;9.47;100.00;100214.91;5072806;28;20668;-64
2022/12/18 04:53:00;;;;;;;0.40;0.40;;;;;;;9.44;100.00;100224.31;5071165;28;20254;-65
2022/12/18 04:55:27;;;;;;;0.40;0.40;;;;;;;9.40;100.00;100226.06;5067793;28;20203;-65
2022/12/18 04:57:54;;;;;;;0.50;0.50;;;;;;;9.35;100.00;100238.09;5071458;28;20219;-65
2022/12/18 05:00:21;;;;;;;0.50;0.50;;;;;;;9.31;100.00;100233.00;5072468;28;20587;-65
2022/12/18 05:02:48;;;;;;;0.40;0.40;;;;;;;9.30;100.00;100237.31;5072228;28;20220;-64
2022/12/18 05:05:16;;;;;;;0.43;0.43;;;;;;;9.24;100.00;100245.03;5072648;28;20234;-64
2022/12/18 05:07:43;;;;;;;0.50;0.50;;;;;;;9.23;100.00;100243.34;5071924;28;20203;-64
2022/12/18 05:10:10;;;;;;;0.47;0.47;;;;;;;9.26;100.00;100247.59;5071827;28;20211;-65
2022/12/18 05:12:57;;;;;;;0.60;0.60;;;;;;;9.23;100.00;100256.16;5066418;28;20208;-64
2022/12/18 05:15:24;;;;;;;0.53;0.53;;;;;;;9.23;100.00;100253.59;5070379;28;20307;-64
2022/12/18 05:17:51;;;;;;;0.50;0.50;;;;;;;9.18;100.00;100265.56;5069417;28;20195;-65
2022/12/18 05:20:20;;;;;;;0.47;0.47;;;;;;;9.22;100.00;100271.50;5070504;28;20215;-65
2022/12/18 05:22:46;;;;;;;0.40;0.40;;;;;;;9.22;100.00;100276.63;5071740;28;20210;-64
2022/12/18 05:25:13;;;;;;;0.60;0.60;;;;;;;9.26;100.00;100284.25;5071755;28;20254;-64
2022/12/18 05:27:40;;;;;;;0.93;0.93;;;;;;;9.20;100.00;100284.31;5071766;28;20200;-65
2022/12/18 05:30:08;;;;;;;0.60;0.60;;;;;;;9.22;100.00;100292.81;5071723;28;20191;-64
2022/12/18 05:32:35;;;;;;;0.50;0.50;;;;;;;9.25;100.00;100297.91;5071851;28;20196;-65
2022/12/18 05:35:02;;;;;;;0.53;0.53;;;;;;;9.25;100.00;100297.03;5069282;28;20207;-65
2022/12/18 05:37:30;;;;;;;0.50;0.50;;;;;;;9.27;100.00;100303.84;5071232;28;20196;-64
2022/12/18 05:39:57;;;;;;;0.60;0.60;;;;;;;9.27;100.00;100308.13;5071508;28;20754;-64
2022/12/18 05:42:24;;;;;;;0.50;0.50;;;;;;;9.25;100.00;100309.84;5071515;28;20575;-64
2022/12/18 05:44:51;;;;;;;0.40;0.40;;;;;;;9.23;100.00;100316.69;5071184;28;20735;-65
2022/12/18 05:47:17;;;;;;;0.40;0.40;;;;;;;9.22;100.00;100318.41;5070948;28;20204;-64
2022/12/18 05:49:44;;;;;;;0.50;0.50;;;;;;;9.22;100.00;100328.63;5071582;28;20196;-65
2022/12/18 05:52:11;;;;;;;0.50;0.50;;;;;;;9.23;100.00;100330.34;5065400;28;20207;-64
2022/12/18 05:54:39;;;;;;;0.43;0.43;;;;;;;9.22;100.00;100333.75;5070036;28;20204;-64
2022/12/18 05:57:06;;;;;;;0.50;0.50;;;;;;;9.21;100.00;100332.03;5069594;28;20285;-64
2022/12/18 05:59:33;;;;;;;0.63;0.63;;;;;;;9.17;100.00;100321.88;5071120;28;20215;-65
2022/12/18 06:02:00;;;;;;;0.30;0.30;;;;;;;9.23;100.00;100335.44;5071048;28;20228;-64
2022/12/18 06:04:28;;;;;;;0.40;0.40;;;;;;;9.23;100.00;100344.84;5070893;28;20270;-65
2022/12/18 06:06:54;;;;;;;0.50;0.50;;;;;;;9.21;100.00;100347.38;5068824;28;20204;-65
2022/12/18 06:09:21;;;;;;;0.50;0.50;;;;;;;9.21;100.00;100347.38;5071540;28;20195;-64
2022/12/18 06:11:49;;;;;;;0.60;0.60;;;;;;;9.24;100.00;100354.22;5068271;28;20212;-64
2022/12/18 06:14:17;;;;;;;0.47;0.47;;;;;;;9.21;100.00;100354.25;5066012;28;20204;-65
2022/12/18 06:16:43;;;;;;;0.40;0.40;;;;;;;9.24;100.00;100356.78;5070871;28;20206;-64
2022/12/18 06:19:16;;;;;;;0.40;0.40;;;;;;;9.17;100.00;100350.88;5070018;28;20202;-64
2022/12/18 06:21:42;;;;;;;0.50;0.50;;;;;;;9.15;100.00;100355.13;5070902;28;20196;-64
2022/12/18 06:24:09;;;;;;;0.50;0.50;;;;;;;9.14;100.00;100352.59;5071230;28;20257;-64
2022/12/18 06:26:38;;;;;;;0.40;0.40;;;;;;;9.26;100.00;100376.34;5066810;28;20284;-64
2022/12/18 06:29:07;;;;;;;0.40;0.40;;;;;;;9.29;100.00;100384.00;5068785;28;20291;-64
2022/12/18 06:31:33;;;;;;;0.60;0.60;;;;;;;9.29;100.00;100383.16;5069496;28;20207;-64
2022/12/18 06:34:02;;;;;;;0.37;0.37;;;;;;;9.30;100.00;100390.84;5070086;28;20207;-65
2022/12/18 06:36:29;;;;;;;0.73;0.73;;;;;;;9.32;100.00;100386.53;5070299;28;20647;-64
2022/12/18 06:38:57;;;;;;;0.50;0.50;;;;;;;9.35;100.00;100391.63;5065687;28;20212;-64
2022/12/18 06:41:24;;;;;;;0.50;0.50;;;;;;;9.31;100.00;100394.22;5064526;28;20216;-64
2022/12/18 06:43:51;;;;;;;0.50;0.50;;;;;;;9.32;100.00;100404.44;5063682;28;20204;-64
2022/12/18 06:46:19;;;;;;;0.50;0.50;;;;;;;9.33;100.00;100408.72;5068640;28;20199;-64
2022/12/18 06:48:49;;;;;;;1.13;0.93;;;;;;;9.30;100.00;100403.63;5062611;28;20262;-64
2022/12/18 06:51:18;;;;;;;0.50;0.50;;;;;;;9.32;100.00;100417.25;5070031;28;20283;-64
2022/12/18 06:53:45;;;;;;;0.50;0.50;;;;;;;9.33;100.00;100428.31;5070093;28;20741;-64
2022/12/18 06:56:11;;;;;;;0.50;0.50;;;;;;;9.23;100.00;100422.44;5068437;28;20639;-65
2022/12/18 06:58:39;;;;;;;0.40;0.40;;;;;;;9.12;100.00;100408.88;5069346;28;20199;-65
2022/12/18 07:01:08;;;;;;;0.50;0.50;;;;;;;9.26;100.00;100442.88;5069569;28;20710;-64
2022/12/18 07:03:36;;;;;;;0.50;0.50;;;;;;;9.28;100.00;100448.81;5069446;28;20242;-64
2022/12/18 07:06:03;;;;;;;0.50;0.50;;;;;;;9.26;100.00;100445.44;5066997;28;20199;-64
2022/12/18 07:08:30;;;;;;;0.40;0.40;;;;;;;9.23;100.00;100453.16;5069385;28;20467;-65
2022/12/18 07:10:57;;;;;;;0.50;0.50;;;;;;;9.22;100.00;100446.31;5068167;28;20299;-65
2022/12/18 07:13:24;;;;;;;0.50;0.50;;;;;;;9.26;100.00;100447.16;5069245;28;20203;-65
2022/12/18 07:15:51;;;;;;;0.40;0.40;;;;;;;9.27;100.00;100448.84;5068699;28;20204;-63
2022/12/18 07:18:17;;;;;;;0.83;0.83;;;;;;;9.28;100.00;100456.50;5067576;28;20700;-62
2022/12/18 07:20:46;;;;;;;0.50;0.50;;;;;;;9.21;100.00;100444.63;5069016;28;20591;-64
2022/12/18 07:23:12;;;;;;;0.60;0.60;;;;;;;9.33;100.00;100462.44;5065233;28;20282;-63
2022/12/18 07:25:39;;;;;;;0.83;0.83;;;;;;;9.33;100.00;100469.28;5065587;28;20676;-63
2022/12/18 07:28:06;;;;;;;0.50;0.50;;;;;;;9.25;100.00;100460.78;5067546;28;20660;-62
2022/12/18 07:30:33;;;;;;;0.40;0.40;;;;;;;9.30;100.00;100462.47;5070426;28;20193;-63
2022/12/18 07:33:00;;;;;;;0.50;0.50;;;;;;;9.27;100.00;100475.25;5067682;28;20211;-63
2022/12/18 07:35:27;;;;;;;0.50;0.50;;;;;;;9.30;100.00;100477.81;5070686;28;20211;-62
2022/12/18 07:37:55;;;;;;;0.50;0.50;;;;;;;9.34;100.00;100476.06;5072647;28;20200;-64
2022/12/18 07:40:22;;;;;;;0.50;0.50;;;;;;;9.35;100.00;100468.38;5073269;28;20297;-64
2022/12/18 07:42:49;;;;;;;0.53;0.53;;;;;;;9.37;100.00;100476.06;5072538;28;20203;-64
2022/12/18 07:45:16;;;;;;;0.50;0.50;;;;;;;9.40;100.00;100476.88;5070628;28;20196;-64
2022/12/18 07:47:42;;;;;;;0.50;0.50;;;;;;;9.38;100.00;100476.03;5072808;28;20261;-64
2022/12/18 07:50:09;;;;;;;0.50;0.50;;;;;;;9.38;100.00;100478.59;5073224;28;20200;-64
2022/12/18 07:52:36;;;;;;;0.40;0.40;;;;;;;9.31;100.00;100464.16;5073221;28;20200;-64
2022/12/18 07:55:06;;;;;;;0.77;0.77;;;;;;;9.42;100.00;100492.22;5072747;28;20207;-64
2022/12/18 07:57:32;;;;;;;0.50;0.50;;;;;;;9.44;100.00;100496.47;5071857;28;20203;-64
2022/12/18 07:59:59;;;;;;;0.93;0.93;;;;;;;9.43;100.00;100501.59;5073447;28;20216;-64
2022/12/18 08:02:26;;;;;;;0.40;0.40;;;;;;;9.42;100.00;100498.19;5073171;28;20277;-64
2022/12/18 08:04:52;;;;;;;0.60;0.60;;;;;;;9.52;100.00;100505.78;5073300;28;20265;-64
2022/12/18 08:07:19;;;;;;;0.40;0.40;;;;;;;9.48;100.00;100510.09;5069060;28;20200;-64
2022/12/18 08:09:46;;;;;;;0.47;0.47;;;;;;;9.56;100.00;100527.97;5072609;28;20737;-65
2022/12/18 08:12:14;;;;;;;0.40;0.40;;;;;;;9.59;100.00;100517.69;5067898;28;20203;-64
2022/12/18 08:14:41;;;;;;;0.40;0.40;;;;;;;9.58;100.00;100527.06;5072238;28;20208;-64
2022/12/18 08:17:08;;;;;;;1.10;1.10;;;;;;;9.64;100.00;100521.03;5068880;28;20207;-64
2022/12/18 08:19:34;;;;;;;0.53;0.53;;;;;;;9.66;100.00;100532.13;5071795;28;20219;-64
2022/12/18 08:22:01;;;;;;;0.57;0.57;;;;;;;9.67;100.00;100531.25;5072742;28;20231;-64
2022/12/18 08:24:28;;;;;;;0.60;0.60;;;;;;;9.68;100.00;100538.09;5072708;28;20207;-64
2022/12/18 08:26:57;;;;;;;0.70;0.70;;;;;;;9.69;100.00;100532.13;5072753;28;20214;-64
2022/12/18 08:29:25;;;;;;;0.47;0.47;;;;;;;9.70;100.00;100536.34;5072981;28;20192;-64
2022/12/18 08:31:51;;;;;;;0.40;0.40;;;;;;;9.70;100.00;100531.22;5072379;28;20219;-65
2022/12/18 08:34:18;;;;;;;0.40;0.40;;;;;;;9.73;100.00;100533.75;5071688;28;20200;-64
2022/12/18 08:36:45;;;;;;;0.50;0.50;;;;;;;9.75;100.00;100529.50;5072857;28;20204;-65
2022/12/18 08:39:12;;;;;;;0.50;0.50;;;;;;;9.79;100.00;100536.28;5070177;28;20257;-63
2022/12/18 08:41:38;;;;;;;0.50;0.50;;;;;;;9.78;100.00;100534.59;5071312;28;20216;-64
2022/12/18 08:46:51;;;;;;;0.50;0.50;;;;;;;9.81;100.00;100539.69;5067403;28;20308;-63
2022/12/18 08:49:17;;;;;;;1.00;1.00;;;;;;;9.82;100.00;100533.72;5069942;28;20204;-63
2022/12/18 08:51:44;;;;;;;0.50;0.50;;;;;;;9.81;100.00;100532.84;5071501;28;20207;-63
2022/12/18 08:54:13;;;;;;;0.40;0.40;;;;;;;9.80;100.00;100528.59;5071654;28;20204;-63
2022/12/18 08:56:40;;;;;;;0.70;0.70;;;;;;;9.86;100.00;100522.53;5072369;28;20742;-64
2022/12/18 08:59:06;;;;;;;0.50;0.50;;;;;;;9.86;100.00;100525.97;5072009;28;20196;-64
2022/12/18 09:01:33;;;;;;;0.60;0.60;;;;;;;9.90;100.00;100522.50;5071625;28;20223;-63
2022/12/18 09:04:01;;;;;;;0.50;0.50;;;;;;;9.92;100.00;100530.16;5071206;28;20200;-63
2022/12/18 09:06:28;;;;;;;0.50;0.50;;;;;;;9.98;100.00;100527.56;5071737;28;20222;-64
2022/12/18 09:08:55;;;;;;;0.53;0.53;;;;;;;10.00;100.00;100529.25;5071839;28;20208;-63
2022/12/18 09:11:24;;;;;;;0.60;0.60;;;;;;;9.99;100.00;100535.22;5069955;28;20592;-64
2022/12/18 09:13:51;;;;;;;0.60;0.60;;;;;;;10.04;100.00;100532.63;5068442;28;20603;-63
2022/12/18 09:16:18;;;;;;;0.60;0.60;;;;;;;10.07;100.00;100530.03;5066354;28;20204;-63
2022/12/18 09:18:45;;;;;;;0.80;0.80;;;;;;;10.04;100.00;100522.38;5069311;28;20204;-64
2022/12/18 09:21:15;;;;;;;0.50;0.50;;;;;;;10.07;100.00;100530.03;5070844;28;20590;-64
2022/12/18 09:23:42;;;;;;;0.40;0.40;;;;;;;10.07;100.00;100532.59;5069711;28;20719;-64
2022/12/18 09:26:10;;;;;;;0.50;0.50;;;;;;;10.12;100.00;100535.94;5066000;28;20207;-64
2022/12/18 09:28:36;;;;;;;0.57;0.57;;;;;;;10.13;100.00;100529.97;5067511;28;20200;-64
2022/12/18 09:31:07;;;;;;;0.50;0.50;;;;;;;10.20;100.00;100534.22;5064863;28;21042;-63
2022/12/18 09:33:33;;;;;;;0.40;0.40;;;;;;;10.25;100.00;100536.69;5070498;28;20211;-64
2022/12/18 09:36:02;;;;;;;0.50;0.50;;;;;;;10.26;100.00;100528.16;5069172;28;20238;-63
2022/12/18 09:38:31;;;;;;;0.60;0.60;;;;;;;10.29;100.00;100523.00;5070434;28;20232;-64
2022/12/18 09:41:03;;;;;;;0.60;0.60;;;;;;;10.32;100.00;100530.66;5069692;28;20215;-63
2022/12/18 09:43:37;;;;;;;0.40;0.40;;;;;;;10.30;100.00;100530.69;5066851;28;20223;-63
2022/12/18 09:46:07;;;;;;;1.17;1.17;;;;;;;10.31;100.00;100532.38;5069278;28;20204;-63
2022/12/18 09:48:37;;;;;;;0.50;0.50;;;;;;;10.29;100.00;100528.97;5070187;28;20199;-63
2022/12/18 09:51:13;;;;;;;0.80;0.80;;;;;;;10.29;100.00;100528.97;5069985;28;20680;-63
2022/12/18 09:53:45;;;;;;;0.50;0.50;;;;;;;10.31;100.00;100534.91;5069868;28;20583;-64
2022/12/18 09:56:19;;;;;;;0.53;0.53;;;;;;;10.34;100.00;100534.88;5069786;28;20231;-64
2022/12/18 09:58:54;;;;;;;0.33;0.33;;;;;;;10.33;100.00;100534.91;5068794;28;20196;-63
2022/12/18 10:01:23;;;;;;;0.80;0.80;;;;;;;10.31;100.00;100540.06;5068657;28;20441;-58
2022/12/18 10:03:53;;;;;;;0.50;0.50;;;;;;;10.39;100.00;100540.84;5069482;28;20223;-58
2022/12/18 10:06:26;;;;;;;0.80;0.80;;;;;;;10.38;100.00;100544.25;5069140;28;20210;-58
2022/12/18 10:09:01;;;;;;;4.13;0.97;;;;;;;10.31;100.00;100524.66;5069822;28;20204;-58
2022/12/18 10:11:40;;;;;;;0.50;0.50;;;;;;;10.36;100.00;100529.75;5068443;28;20275;-58
2022/12/18 10:14:17;;;;;;;0.40;0.40;;;;;;;10.36;100.00;100528.06;5068840;28;20211;-58
2022/12/18 10:16:54;;;;;;;0.60;0.60;;;;;;;10.40;100.00;100534.81;5067655;28;20195;-58
2022/12/18 10:19:36;;;;;;;0.43;0.43;;;;;;;10.40;100.00;100534.81;5070915;28;20537;-58
2022/12/18 10:22:15;;;;;;;0.50;0.50;;;;;;;10.37;100.00;100532.28;5070582;28;20273;-58
2022/12/18 10:24:49;;;;;;;0.50;0.50;;;;;;;10.38;100.00;100534.00;5071418;28;20606;-58
2022/12/18 10:27:18;;;;;;;1.37;1.37;;;;;;;10.41;100.00;100528.84;5070848;28;20199;-58
2022/12/18 10:29:45;;;;;;;0.40;0.40;;;;;;;10.43;100.00;100532.25;5070917;28;20200;-58
2022/12/18 10:32:17;;;;;;;0.50;0.50;;;;;;;10.46;100.00;100532.22;5071014;28;20671;-58
2022/12/18 10:34:47;;;;;;;0.43;0.43;;;;;;;10.46;100.00;100532.22;5071037;28;20192;-58
2022/12/18 10:37:18;;;;;;;0.47;0.47;;;;;;;10.50;100.00;100538.97;5071021;28;20630;-58
2022/12/18 10:39:47;;;;;;;0.43;0.43;;;;;;;10.50;100.00;100540.72;5070257;28;20208;-58
2022/12/18 10:42:19;;;;;;;0.50;0.50;;;;;;;10.50;100.00;100543.28;5069199;28;20216;-58
2022/12/18 10:44:46;;;;;;;0.50;0.50;;;;;;;10.52;100.00;100544.09;5067081;28;20196;-58
2022/12/18 10:47:19;;;;;;;0.70;0.70;;;;;;;10.50;100.00;100544.09;5070293;28;20254;-58
2022/12/18 10:49:50;;;;;;;0.60;0.60;;;;;;;10.57;100.00;100556.84;5070793;28;20278;-58
2022/12/18 10:52:19;;;;;;;0.40;0.40;;;;;;;10.56;100.00;100557.72;5070776;28;20640;-58
2022/12/18 10:54:54;;;;;;;0.40;0.40;;;;;;;10.47;100.00;100554.41;5071079;28;20203;-58
2022/12/18 10:57:36;;;;;;;0.63;0.63;;;;;;;10.44;100.00;100549.31;5069967;28;20191;-58
2022/12/18 11:00:24;;;;;;;0.50;0.50;;;;;;;10.49;100.00;100562.94;5068213;28;20595;-58
2022/12/18 11:02:51;;;;;;;0.60;0.60;;;;;;;10.47;100.00;100563.78;5069648;28;20266;-58
2022/12/18 11:05:29;;;;;;;0.73;0.73;;;;;;;10.38;100.00;100559.63;5070447;28;20210;-58
2022/12/18 11:07:56;;;;;;;0.50;0.50;;;;;;;10.37;100.00;100567.34;5074369;28;20733;-58
2022/12/18 11:10:29;;;;;;;0.50;0.50;;;;;;;10.33;100.00;100561.41;5074284;28;20556;-58
2022/12/18 11:12:56;;;;;;;0.50;0.50;;;;;;;10.27;100.00;100555.50;5074965;28;20187;-58
2022/12/18 11:15:29;;;;;;;0.50;0.50;;;;;;;10.25;100.00;100568.31;5074348;28;20269;-58
2022/12/18 11:17:56;;;;;;;0.53;0.53;;;;;;;10.25;100.00;100565.75;5074579;28;20691;-58
2022/12/18 11:20:32;;;;;;;0.73;0.73;;;;;;;10.16;100.00;100563.28;5074144;28;20207;-58
2022/12/18 11:23:03;;;;;;;0.50;0.50;;;;;;;10.18;100.00;100566.66;5073516;28;20296;-58
2022/12/18 11:25:33;;;;;;;0.60;0.60;;;;;;;10.12;100.00;100561.56;5073928;28;20579;-58
2022/12/18 11:28:02;;;;;;;0.40;0.40;;;;;;;10.04;100.00;100571.06;5074409;28;20204;-58
2022/12/18 11:30:31;;;;;;;0.50;0.50;;;;;;;9.97;100.00;100567.72;5074172;28;20253;-58
2022/12/18 11:33:03;;;;;;;0.50;0.50;;;;;;;9.97;100.00;100570.28;5073959;28;20196;-58
2022/12/18 11:35:43;;;;;;;0.40;0.40;;;;;;;9.88;100.00;100567.78;5073819;28;20196;-58
2022/12/18 11:38:22;;;;;;;1.00;1.00;;;;;;;9.89;100.00;100569.47;5070358;28;20200;-58